VHIUI LFMD-LFMD
Flight info
| Callsign | VHIUI |
|---|---|
| Flight time | N/A |
| Altitude | 1500 |
| Route | LFMD DCT SAINT TROPEZ DCT LFMD |
| Aircraft | B429/L-SDFGIRW/S |
Departure
| Time | 2026-04-30 08:56 |
|---|---|
| Airport | Cannes Mandelieu Airport (LFMD) |
Arrival
| Time | N/A |
|---|---|
| Airport | Cannes Mandelieu Airport (LFMD) |
| Time | Latitude | Longitude | Altitude | Speed | Heading |
|---|---|---|---|---|---|
| 2026-04-30 08:44 | 43.54127 | 6.95447 | 13 ft | 0 kts | 82° |
| 2026-04-30 08:54 | 43.54126 | 6.95448 | 15 ft | 1 kts | 79° |
| 2026-04-30 08:55 | 43.54125 | 6.95449 | 26 ft | 1 kts | 129° |
| 2026-04-30 08:55 | 43.54119 | 6.95445 | 32 ft | 5 kts | 204° |
| 2026-04-30 08:55 | 43.53975 | 6.95346 | 151 ft | 50 kts | 201° |
| 2026-04-30 08:55 | 43.53607 | 6.94941 | 316 ft | 77 kts | 217° |
| 2026-04-30 08:56 | 43.53146 | 6.94438 | 542 ft | 89 kts | 212° |
| 2026-04-30 08:56 | 43.52598 | 6.93910 | 639 ft | 99 kts | 205° |
| 2026-04-30 08:56 | 43.51966 | 6.93433 | 766 ft | 104 kts | 196° |
| 2026-04-30 08:56 | 43.51263 | 6.93083 | 887 ft | 102 kts | 191° |
| 2026-04-30 08:57 | 43.50648 | 6.92544 | 1122 ft | 114 kts | 220° |
| 2026-04-30 08:57 | 43.50280 | 6.91592 | 1364 ft | 117 kts | 242° |
| 2026-04-30 08:57 | 43.49966 | 6.90533 | 1478 ft | 122 kts | 240° |
| 2026-04-30 08:57 | 43.49488 | 6.89537 | 1595 ft | 125 kts | 219° |
| 2026-04-30 08:58 | 43.49029 | 6.88397 | 1401 ft | 142 kts | 251° |
| 2026-04-30 08:58 | 43.48838 | 6.87106 | 1450 ft | 139 kts | 244° |
| 2026-04-30 08:58 | 43.48377 | 6.86028 | 1495 ft | 124 kts | 222° |
| 2026-04-30 08:58 | 43.47720 | 6.85195 | 1386 ft | 128 kts | 212° |
| 2026-04-30 08:59 | 43.47010 | 6.84465 | 1398 ft | 125 kts | 205° |
| 2026-04-30 08:59 | 43.46254 | 6.83809 | 1343 ft | 129 kts | 199° |
| 2026-04-30 08:59 | 43.45540 | 6.83085 | 1355 ft | 131 kts | 209° |
| 2026-04-30 08:59 | 43.44830 | 6.82303 | 1418 ft | 129 kts | 208° |
| 2026-04-30 09:00 | 43.44093 | 6.81609 | 1345 ft | 128 kts | 201° |
| 2026-04-30 09:00 | 43.43309 | 6.81027 | 1195 ft | 128 kts | 193° |
| 2026-04-30 09:00 | 43.42502 | 6.80490 | 1091 ft | 130 kts | 202° |
| 2026-04-30 09:00 | 43.41845 | 6.79585 | 1109 ft | 139 kts | 224° |
| 2026-04-30 09:01 | 43.41330 | 6.78475 | 1066 ft | 138 kts | 232° |
| 2026-04-30 09:01 | 43.40839 | 6.77311 | 939 ft | 143 kts | 234° |
| 2026-04-30 09:01 | 43.40359 | 6.76133 | 844 ft | 139 kts | 231° |
| 2026-04-30 09:01 | 43.39802 | 6.75082 | 726 ft | 133 kts | 224° |
| 2026-04-30 09:02 | 43.38499 | 6.73454 | 593 ft | 121 kts | 211° |
| 2026-04-30 09:02 | 43.37821 | 6.72755 | 594 ft | 122 kts | 211° |
| 2026-04-30 09:02 | 43.37142 | 6.72105 | 654 ft | 123 kts | 204° |
| 2026-04-30 09:03 | 43.36448 | 6.71426 | 730 ft | 124 kts | 207° |
| 2026-04-30 09:03 | 43.35769 | 6.70707 | 986 ft | 125 kts | 208° |
| 2026-04-30 09:03 | 43.35129 | 6.69986 | 1310 ft | 116 kts | 200° |
| 2026-04-30 09:03 | 43.34453 | 6.69313 | 1431 ft | 127 kts | 202° |
| 2026-04-30 09:04 | 43.33758 | 6.68477 | 1340 ft | 138 kts | 209° |
| 2026-04-30 09:04 | 43.33083 | 6.67520 | 1188 ft | 141 kts | 212° |
| 2026-04-30 09:04 | 43.32311 | 6.66726 | 1050 ft | 135 kts | 199° |
| 2026-04-30 09:04 | 43.31484 | 6.66092 | 1048 ft | 134 kts | 198° |
| 2026-04-30 09:05 | 43.30653 | 6.65555 | 958 ft | 133 kts | 188° |
| 2026-04-30 09:05 | 43.29804 | 6.64989 | 821 ft | 140 kts | 197° |
| 2026-04-30 09:05 | 43.29059 | 6.64204 | 925 ft | 124 kts | 201° |
| 2026-04-30 09:05 | 43.28447 | 6.63703 | 1056 ft | 86 kts | 181° |
| 2026-04-30 09:06 | 43.27984 | 6.63397 | 1050 ft | 55 kts | 169° |
| 2026-04-30 09:06 | 43.27809 | 6.63359 | 1016 ft | 39 kts | 154° |
| 2026-04-30 09:06 | 43.27627 | 6.63276 | 848 ft | 36 kts | 153° |
| 2026-04-30 09:07 | 43.27487 | 6.63017 | 613 ft | 34 kts | 159° |
| 2026-04-30 09:07 | 43.27244 | 6.62813 | 428 ft | 67 kts | 166° |
| 2026-04-30 09:07 | 43.26899 | 6.62597 | 535 ft | 35 kts | 184° |
| 2026-04-30 09:07 | 43.26770 | 6.62587 | 559 ft | 16 kts | 124° |
| 2026-04-30 09:08 | 43.26717 | 6.62766 | 516 ft | 23 kts | 96° |
| 2026-04-30 09:08 | 43.26721 | 6.62931 | 514 ft | 7 kts | 84° |
| 2026-04-30 09:08 | 43.26729 | 6.62985 | 321 ft | 7 kts | 76° |
| 2026-04-30 09:08 | 43.26745 | 6.63048 | 232 ft | 8 kts | 56° |
| 2026-04-30 09:09 | 43.26787 | 6.63115 | 204 ft | 8 kts | 46° |
| 2026-04-30 09:09 | 43.26834 | 6.63148 | 149 ft | 8 kts | 15° |
| 2026-04-30 09:09 | 43.26861 | 6.63155 | 97 ft | 2 kts | 328° |
| 2026-04-30 09:09 | 43.26862 | 6.63119 | 36 ft | 5 kts | 263° |
| 2026-04-30 09:10 | 43.26865 | 6.63101 | 22 ft | 0 kts | 159° |
| 2026-04-30 09:10 | 43.26861 | 6.63103 | 23 ft | 1 kts | 148° |
| 2026-04-30 09:10 | 43.26857 | 6.63108 | 23 ft | 0 kts | 132° |